Time;durP1;ratioP1;P1;durP2;ratioP2;P2;SDS_P1;SDS_P2;PMS_P1;PMS_P2;Temp;Humidity;BMP_temperature;BMP_pressure;BME280_temperature;BME280_humidity;BME280_pressure;Samples;Min_cycle;Max_cycle;Signal;HPM_P1;HPM_P2
2021/03/02 00:01:51;;;;;;;61.90;26.42;;;2.80;99.90;;;;;;5048113;28;20029;-47
2021/03/02 00:04:17;;;;;;;62.80;27.73;;;2.70;99.90;;;;;;5046943;28;20025;-47
2021/03/02 00:06:43;;;;;;;58.10;24.85;;;2.80;99.90;;;;;;5047832;28;20032;-44
2021/03/02 00:09:09;;;;;;;57.22;24.17;;;2.70;99.90;;;;;;5047683;28;20079;-44
2021/03/02 00:11:37;;;;;;;48.67;23.33;;;2.70;99.90;;;;;;5048399;28;20152;-45
2021/03/02 00:14:02;;;;;;;45.97;23.45;;;2.70;99.90;;;;;;5046441;28;20589;-46
2021/03/02 00:16:30;;;;;;;47.75;23.92;;;2.80;99.90;;;;;;5047635;28;20043;-46
2021/03/02 00:19:02;;;;;;;48.05;23.95;;;2.70;99.90;;;;;;5047601;28;20017;-45
2021/03/02 00:21:33;;;;;;;63.30;25.55;;;2.60;99.90;;;;;;5047129;28;20117;-44
2021/03/02 00:24:03;;;;;;;56.83;25.30;;;2.60;99.90;;;;;;5048416;28;20063;-46
2021/03/02 00:26:33;;;;;;;58.17;26.25;;;2.60;99.90;;;;;;5046926;28;20457;-45
2021/03/02 00:29:03;;;;;;;53.33;24.60;;;2.60;99.90;;;;;;5051018;28;20498;-45
2021/03/02 00:31:33;;;;;;;56.30;27.40;;;2.60;99.90;;;;;;5051263;28;20028;-45
2021/03/02 00:33:59;;;;;;;58.08;24.02;;;2.60;99.90;;;;;;5052140;28;20192;-45
2021/03/02 00:36:25;;;;;;;57.47;25.45;;;2.60;99.90;;;;;;5050642;28;20032;-46
2021/03/02 00:38:50;;;;;;;59.65;25.85;;;2.60;99.90;;;;;;5052043;28;20489;-48
2021/03/02 00:41:16;;;;;;;58.50;26.98;;;2.60;99.90;;;;;;5050657;28;20025;-46
2021/03/02 00:43:41;;;;;;;47.03;23.60;;;2.60;99.90;;;;;;5051263;28;20017;-45
2021/03/02 00:46:07;;;;;;;56.08;24.40;;;2.70;99.90;;;;;;5050899;28;20456;-48
2021/03/02 00:48:32;;;;;;;63.63;26.13;;;2.60;99.90;;;;;;5051507;28;20025;-46
2021/03/02 00:50:59;;;;;;;56.72;25.75;;;2.60;99.90;;;;;;5051180;28;20025;-46
2021/03/02 00:53:25;;;;;;;61.10;26.88;;;2.50;99.90;;;;;;5051943;28;20108;-46
2021/03/02 00:55:51;;;;;;;64.85;28.27;;;2.60;99.90;;;;;;5051060;28;20032;-45
2021/03/02 00:58:16;;;;;;;57.80;26.00;;;2.60;99.90;;;;;;5050186;28;20033;-45
2021/03/02 01:00:42;;;;;;;60.30;25.85;;;2.60;99.90;;;;;;5050908;28;20029;-49
2021/03/02 01:03:08;;;;;;;56.25;26.55;;;2.60;99.90;;;;;;5051645;28;20025;-44
2021/03/02 01:05:33;;;;;;;73.95;27.60;;;2.50;99.90;;;;;;5050610;28;20517;-45
2021/03/02 01:07:59;;;;;;;65.50;27.60;;;2.50;99.90;;;;;;5051552;28;20505;-46
2021/03/02 01:10:24;;;;;;;63.35;27.58;;;2.50;99.90;;;;;;5051662;28;20025;-46
2021/03/02 01:12:49;;;;;;;62.20;29.08;;;2.50;99.90;;;;;;5049863;28;20035;-45
2021/03/02 01:15:15;;;;;;;66.57;29.00;;;2.40;99.90;;;;;;5051372;28;20037;-45
2021/03/02 01:17:41;;;;;;;61.40;27.55;;;2.40;99.90;;;;;;5051317;28;20056;-46
2021/03/02 01:20:07;;;;;;;65.78;28.60;;;2.40;99.90;;;;;;5051270;28;20564;-46
2021/03/02 01:22:32;;;;;;;67.68;29.27;;;2.50;99.90;;;;;;5050046;28;20032;-45
2021/03/02 01:24:58;;;;;;;65.53;29.15;;;2.50;99.90;;;;;;5050290;28;20020;-46
2021/03/02 01:27:24;;;;;;;67.18;29.45;;;2.40;99.90;;;;;;5051153;28;20474;-47
2021/03/02 01:29:49;;;;;;;75.53;30.70;;;2.40;99.90;;;;;;5050197;28;20033;-47
2021/03/02 01:32:14;;;;;;;72.72;30.65;;;2.40;99.90;;;;;;5050977;28;20329;-46
2021/03/02 01:34:40;;;;;;;67.03;28.92;;;2.40;99.90;;;;;;5050958;28;20383;-46
2021/03/02 01:37:06;;;;;;;90.95;34.42;;;2.40;99.90;;;;;;5049590;28;20087;-46
2021/03/02 01:39:31;;;;;;;83.63;32.80;;;2.40;99.90;;;;;;5049765;28;20044;-46
2021/03/02 01:41:58;;;;;;;76.30;32.45;;;2.40;99.90;;;;;;5050035;28;20627;-46
2021/03/02 01:44:27;;;;;;;84.43;31.95;;;2.40;99.90;;;;;;5050595;28;20427;-45
2021/03/02 01:46:52;;;;;;;76.30;31.63;;;2.50;99.90;;;;;;5049826;28;20148;-46
2021/03/02 01:49:18;;;;;;;74.25;33.33;;;2.50;99.90;;;;;;5050733;28;20492;-48
2021/03/02 01:51:44;;;;;;;64.38;28.65;;;2.40;99.90;;;;;;5050679;28;20055;-46
2021/03/02 01:54:12;;;;;;;62.30;28.52;;;2.40;99.90;;;;;;5050134;28;20371;-46
2021/03/02 01:56:38;;;;;;;65.68;29.88;;;2.40;99.90;;;;;;5049908;28;20040;-48
2021/03/02 01:59:04;;;;;;;64.70;27.90;;;2.40;99.90;;;;;;5050510;28;20021;-47
2021/03/02 02:01:30;;;;;;;64.53;29.48;;;2.30;99.90;;;;;;5050260;28;20364;-46
2021/03/02 02:04:04;;;;;;;64.25;29.33;;;2.30;99.90;;;;;;5050710;28;20017;-46
2021/03/02 02:06:43;;;;;;;66.05;28.25;;;2.30;99.90;;;;;;5049831;28;20033;-47
2021/03/02 02:09:23;;;;;;;73.72;30.60;;;2.30;99.90;;;;;;5050099;28;20060;-47
2021/03/02 02:12:08;;;;;;;69.75;30.15;;;2.20;99.90;;;;;;5050429;28;20104;-45
2021/03/02 02:14:43;;;;;;;75.45;28.50;;;2.20;99.90;;;;;;5049801;28;20037;-46
2021/03/02 02:17:18;;;;;;;112.03;33.13;;;2.20;99.90;;;;;;5048257;28;20516;-46
2021/03/02 02:19:48;;;;;;;193.23;33.00;;;2.10;99.90;;;;;;5049398;28;20021;-45
2021/03/02 02:22:22;;;;;;;71.40;31.87;;;2.00;99.90;;;;;;5050025;28;20653;-46
2021/03/02 02:25:18;;;;;;;68.70;30.63;;;1.90;99.90;;;;;;5049244;28;20376;-45
2021/03/02 02:27:48;;;;;;;72.55;30.48;;;1.90;99.90;;;;;;5049906;28;20540;-46
2021/03/02 02:30:14;;;;;;;84.25;33.88;;;2.00;99.90;;;;;;5049512;28;20032;-43
2021/03/02 02:32:42;;;;;;;67.70;30.52;;;2.00;99.90;;;;;;5049048;28;20043;-46
2021/03/02 02:35:09;;;;;;;74.97;30.45;;;2.00;99.90;;;;;;5049515;28;20032;-44
2021/03/02 02:37:35;;;;;;;75.25;30.50;;;2.00;99.90;;;;;;5050296;28;20490;-44
2021/03/02 02:40:03;;;;;;;77.72;32.42;;;2.10;99.90;;;;;;5059357;28;20183;-47
2021/03/02 02:42:31;;;;;;;72.53;31.52;;;2.10;99.90;;;;;;5060363;28;20024;-44
2021/03/02 02:44:57;;;;;;;65.82;31.38;;;2.10;99.90;;;;;;5054641;28;20021;-47
2021/03/02 02:47:24;;;;;;;69.63;32.03;;;2.10;99.90;;;;;;5059713;28;20031;-47
2021/03/02 02:49:50;;;;;;;72.95;32.35;;;2.10;99.90;;;;;;5057189;28;20037;-45
2021/03/02 02:52:18;;;;;;;81.88;32.88;;;2.10;99.90;;;;;;5056590;28;20462;-45
2021/03/02 02:54:46;;;;;;;78.03;32.13;;;2.10;99.90;;;;;;5059558;28;20039;-46
2021/03/02 02:57:15;;;;;;;74.60;34.40;;;2.10;99.90;;;;;;5055752;28;20052;-44
2021/03/02 02:59:42;;;;;;;105.68;34.45;;;2.00;99.90;;;;;;5057639;28;20029;-44
2021/03/02 03:02:17;;;;;;;68.50;29.60;;;2.00;99.90;;;;;;5058888;28;20016;-44
2021/03/02 03:04:52;;;;;;;81.22;32.85;;;2.00;99.90;;;;;;5057201;28;20294;-44
2021/03/02 03:07:30;;;;;;;93.70;34.80;;;1.90;99.90;;;;;;5049771;28;20199;-44
2021/03/02 03:09:56;;;;;;;75.90;32.40;;;1.90;99.90;;;;;;5048530;28;20035;-45
2021/03/02 03:12:25;;;;;;;82.75;35.17;;;1.90;99.90;;;;;;5047323;28;20060;-44
2021/03/02 03:15:01;;;;;;;79.35;34.85;;;1.90;99.90;;;;;;5048392;28;20123;-45
2021/03/02 03:17:37;;;;;;;77.95;34.80;;;1.90;99.90;;;;;;5049046;28;20056;-45
2021/03/02 03:20:04;;;;;;;88.03;32.83;;;1.90;99.90;;;;;;5048394;28;20499;-47
2021/03/02 03:22:31;;;;;;;75.40;32.42;;;1.90;99.90;;;;;;5060416;28;20499;-48
2021/03/02 03:24:58;;;;;;;82.68;34.65;;;1.90;99.90;;;;;;5051912;28;20386;-44
2021/03/02 03:27:26;;;;;;;82.32;33.30;;;1.90;99.90;;;;;;5049125;28;20056;-47
2021/03/02 03:29:51;;;;;;;77.32;32.85;;;1.90;99.90;;;;;;5048269;28;20502;-44
2021/03/02 03:32:18;;;;;;;90.38;34.15;;;1.90;99.90;;;;;;5046996;28;20033;-46
2021/03/02 03:34:44;;;;;;;73.32;31.38;;;1.80;99.90;;;;;;5048614;28;20028;-45
2021/03/02 03:37:10;;;;;;;85.85;35.53;;;1.80;99.90;;;;;;5048061;28;20192;-46
2021/03/02 03:39:36;;;;;;;84.03;33.55;;;1.80;99.90;;;;;;5048110;28;20259;-46
2021/03/02 03:42:03;;;;;;;87.45;34.75;;;1.70;99.90;;;;;;5047772;28;20017;-45
2021/03/02 03:44:28;;;;;;;77.13;34.15;;;1.80;99.90;;;;;;5048593;28;20127;-45
2021/03/02 03:46:54;;;;;;;89.63;36.75;;;1.80;99.90;;;;;;5047315;28;20494;-45
2021/03/02 03:49:19;;;;;;;81.80;33.97;;;1.80;99.90;;;;;;5048459;28;20398;-46
2021/03/02 03:51:46;;;;;;;77.63;34.83;;;1.70;99.90;;;;;;5048074;28;20085;-45
2021/03/02 03:54:13;;;;;;;78.53;34.25;;;1.70;99.90;;;;;;5048098;28;20025;-44
2021/03/02 03:56:41;;;;;;;82.38;35.17;;;1.70;99.90;;;;;;5047245;28;20025;-44
2021/03/02 03:59:07;;;;;;;90.38;36.97;;;1.70;99.90;;;;;;5048071;28;20021;-44
2021/03/02 04:01:33;;;;;;;78.97;34.95;;;1.60;99.90;;;;;;5047749;28;20032;-45
2021/03/02 04:03:59;;;;;;;91.53;34.05;;;1.60;99.90;;;;;;5046335;28;20025;-45
2021/03/02 04:06:25;;;;;;;80.22;35.17;;;1.60;99.90;;;;;;5047772;28;20025;-46
2021/03/02 04:08:51;;;;;;;90.18;35.08;;;1.50;99.90;;;;;;5047706;28;20052;-45
2021/03/02 04:11:16;;;;;;;85.22;34.40;;;1.50;99.90;;;;;;5048169;28;20109;-45
2021/03/02 04:13:42;;;;;;;80.32;34.10;;;1.50;99.90;;;;;;5047515;28;20056;-47
2021/03/02 04:16:07;;;;;;;86.55;33.47;;;1.50;99.90;;;;;;5047436;28;20032;-43
2021/03/02 04:18:34;;;;;;;75.65;32.95;;;1.40;99.90;;;;;;5047550;28;20032;-44
2021/03/02 04:21:01;;;;;;;80.63;34.13;;;1.40;99.90;;;;;;5048432;28;20029;-45
2021/03/02 04:23:26;;;;;;;85.00;35.17;;;1.50;99.90;;;;;;5048254;28;20078;-44
2021/03/02 04:25:52;;;;;;;83.55;36.10;;;1.50;99.90;;;;;;5047028;28;20028;-46
2021/03/02 04:28:17;;;;;;;84.93;35.15;;;1.50;99.90;;;;;;5048065;28;20029;-45
2021/03/02 04:30:43;;;;;;;128.95;37.20;;;1.30;99.90;;;;;;5047432;28;20106;-47
2021/03/02 04:33:08;;;;;;;130.90;35.78;;;1.20;99.90;;;;;;5047847;28;20024;-45
2021/03/02 04:35:34;;;;;;;94.80;35.58;;;1.10;99.90;;;;;;5047576;28;20025;-45
2021/03/02 04:38:00;;;;;;;81.90;34.88;;;1.10;99.90;;;;;;5047500;28;20378;-48
2021/03/02 04:40:26;;;;;;;97.47;35.30;;;1.10;99.90;;;;;;5048074;28;20071;-45
2021/03/02 04:42:51;;;;;;;100.82;36.05;;;1.00;99.90;;;;;;5047338;28;20021;-45
2021/03/02 04:45:17;;;;;;;81.10;34.75;;;0.90;99.90;;;;;;5047378;28;20024;-45
2021/03/02 04:47:44;;;;;;;83.97;34.40;;;0.90;99.90;;;;;;5047156;28;20108;-45
2021/03/02 04:50:12;;;;;;;86.25;33.85;;;0.90;99.90;;;;;;5047822;28;20059;-45
2021/03/02 04:52:38;;;;;;;77.88;31.13;;;1.00;99.90;;;;;;5047237;28;20057;-44
2021/03/02 04:55:05;;;;;;;80.35;32.42;;;1.10;99.90;;;;;;5047438;28;20036;-47
2021/03/02 04:57:30;;;;;;;87.97;36.70;;;1.20;99.90;;;;;;5047606;28;20090;-46
2021/03/02 04:59:56;;;;;;;77.05;32.88;;;1.20;99.90;;;;;;5047086;28;20478;-45
2021/03/02 05:02:22;;;;;;;86.63;36.15;;;1.20;99.90;;;;;;5053894;28;20506;-46
2021/03/02 05:04:48;;;;;;;84.15;35.08;;;1.20;99.90;;;;;;5054248;28;20067;-44
2021/03/02 05:07:13;;;;;;;70.80;32.75;;;1.10;99.90;;;;;;5056480;28;20055;-45
2021/03/02 05:09:39;;;;;;;85.03;33.60;;;1.10;99.90;;;;;;5045956;28;20394;-48
2021/03/02 05:12:05;;;;;;;73.72;30.40;;;1.20;99.90;;;;;;5064204;28;20036;-44
2021/03/02 05:14:30;;;;;;;80.10;34.38;;;1.20;99.90;;;;;;5056006;28;20025;-46
2021/03/02 05:16:56;;;;;;;84.55;33.47;;;1.10;99.90;;;;;;5050540;28;20021;-45
2021/03/02 05:19:21;;;;;;;84.05;34.25;;;1.00;99.90;;;;;;5050450;28;20029;-50
2021/03/02 05:21:47;;;;;;;147.27;35.05;;;1.00;99.90;;;;;;5051440;28;20032;-45
2021/03/02 05:24:13;;;;;;;92.15;33.20;;;0.80;99.90;;;;;;5051102;28;20021;-44
2021/03/02 05:26:38;;;;;;;88.50;34.45;;;0.80;99.90;;;;;;5048805;28;20029;-45
2021/03/02 05:29:04;;;;;;;87.97;32.92;;;0.90;99.90;;;;;;5051128;28;20021;-44
2021/03/02 05:31:29;;;;;;;83.63;32.75;;;1.00;99.90;;;;;;5050583;28;20036;-46
2021/03/02 05:33:55;;;;;;;97.07;34.17;;;0.90;99.90;;;;;;5050884;28;20037;-45
2021/03/02 05:36:20;;;;;;;86.40;32.63;;;1.00;99.90;;;;;;5050300;28;20036;-45
2021/03/02 05:38:46;;;;;;;71.20;30.50;;;1.00;99.90;;;;;;5050799;28;20515;-44
2021/03/02 05:41:12;;;;;;;72.65;31.45;;;1.00;99.90;;;;;;5051124;28;20031;-44
2021/03/02 05:43:42;;;;;;;73.65;31.05;;;1.00;99.90;;;;;;5050587;28;20017;-45
2021/03/02 05:46:09;;;;;;;98.87;30.03;;;1.00;99.90;;;;;;5055365;28;20029;-44
2021/03/02 05:48:36;;;;;;;84.63;34.13;;;0.90;99.90;;;;;;5058379;28;20036;-45
2021/03/02 05:51:01;;;;;;;78.47;31.60;;;0.90;99.90;;;;;;5058419;28;20069;-45
2021/03/02 05:53:27;;;;;;;83.45;31.23;;;0.80;99.90;;;;;;5057800;28;20025;-47
2021/03/02 05:55:53;;;;;;;66.97;28.75;;;0.80;99.90;;;;;;5057772;28;20033;-45
2021/03/02 05:58:19;;;;;;;71.35;29.10;;;0.80;99.90;;;;;;5059759;28;20479;-45
2021/03/02 06:00:44;;;;;;;77.53;30.30;;;0.80;99.90;;;;;;5056488;28;20031;-47
2021/03/02 06:03:10;;;;;;;75.05;32.00;;;0.80;99.90;;;;;;5058699;28;20021;-45
2021/03/02 06:05:37;;;;;;;65.20;29.50;;;0.80;99.90;;;;;;5056898;28;20468;-46
2021/03/02 06:08:06;;;;;;;74.25;32.35;;;0.80;99.90;;;;;;5049889;28;20306;-45
2021/03/02 06:10:32;;;;;;;71.95;32.40;;;0.90;99.90;;;;;;5048598;28;20052;-47
2021/03/02 06:12:59;;;;;;;73.03;30.92;;;0.90;99.90;;;;;;5049015;28;20086;-46
2021/03/02 06:15:27;;;;;;;67.25;28.60;;;0.90;99.90;;;;;;5052429;28;20098;-45
2021/03/02 06:18:18;;;;;;;70.30;29.67;;;1.00;99.90;;;;;;5063448;28;20032;-44
2021/03/02 06:20:45;;;;;;;65.72;29.58;;;1.10;99.90;;;;;;5049457;28;20046;-44
2021/03/02 06:23:25;;;;;;;69.43;29.27;;;1.10;99.90;;;;;;5064464;28;20047;-46
2021/03/02 06:25:52;;;;;;;66.63;28.85;;;1.10;99.90;;;;;;5048717;28;20112;-49
2021/03/02 06:28:34;;;;;;;64.20;28.90;;;1.10;99.90;;;;;;5051446;28;20498;-45
2021/03/02 06:31:00;;;;;;;64.60;26.52;;;1.20;99.90;;;;;;5048435;28;20044;-49
2021/03/02 06:33:25;;;;;;;67.85;28.60;;;1.10;99.90;;;;;;5049603;28;20025;-48
2021/03/02 06:35:51;;;;;;;65.85;28.40;;;1.20;99.90;;;;;;5054691;28;20048;-47
2021/03/02 06:38:27;;;;;;;65.00;28.13;;;1.20;99.90;;;;;;5057683;28;20025;-46
2021/03/02 06:40:54;;;;;;;77.97;32.42;;;1.20;99.90;;;;;;5054865;28;20481;-49
2021/03/02 06:43:38;;;;;;;83.82;31.55;;;1.20;99.90;;;;;;5059795;28;20045;-50
2021/03/02 06:46:08;;;;;;;77.90;29.30;;;1.20;99.90;;;;;;5055027;28;20386;-46
2021/03/02 06:48:56;;;;;;;70.18;29.10;;;1.10;99.90;;;;;;5065587;28;20121;-49
2021/03/02 06:51:33;;;;;;;83.40;32.08;;;1.20;99.90;;;;;;5064205;28;20082;-47
2021/03/02 06:54:04;;;;;;;79.18;33.15;;;1.30;99.90;;;;;;5062869;28;20119;-47
2021/03/02 06:56:29;;;;;;;80.85;30.92;;;1.30;99.90;;;;;;5049399;28;20029;-46
2021/03/02 06:59:18;;;;;;;73.45;29.90;;;1.30;99.90;;;;;;5059378;28;20087;-46
2021/03/02 07:01:45;;;;;;;79.22;31.08;;;1.40;99.90;;;;;;5048618;28;20067;-45
2021/03/02 07:04:13;;;;;;;71.82;30.92;;;1.50;99.90;;;;;;5050901;28;20029;-46
2021/03/02 07:06:39;;;;;;;75.70;31.00;;;1.50;99.90;;;;;;5056595;28;20056;-47
2021/03/02 07:09:06;;;;;;;69.25;29.80;;;1.50;99.90;;;;;;5056197;28;20053;-47
2021/03/02 07:11:37;;;;;;;72.65;28.73;;;1.50;99.90;;;;;;5046721;28;20425;-47
2021/03/02 07:14:05;;;;;;;69.38;28.83;;;1.50;99.90;;;;;;5051686;28;20537;-48
2021/03/02 07:16:58;;;;;;;68.03;27.08;;;1.60;99.90;;;;;;5049170;28;20028;-46
2021/03/02 07:19:24;;;;;;;70.53;27.90;;;1.60;99.90;;;;;;5065075;28;20290;-48
2021/03/02 07:21:54;;;;;;;71.53;28.15;;;1.60;99.90;;;;;;5050711;28;20040;-49
2021/03/02 07:24:25;;;;;;;89.70;28.13;;;1.70;99.90;;;;;;5052443;28;20576;-49
2021/03/02 07:26:52;;;;;;;69.38;29.17;;;1.60;99.90;;;;;;5047061;28;20039;-48
2021/03/02 07:29:17;;;;;;;86.60;29.20;;;1.60;99.90;;;;;;5047840;28;20025;-47
2021/03/02 07:31:43;;;;;;;68.25;27.48;;;1.40;99.90;;;;;;5047610;28;20032;-46
2021/03/02 07:34:11;;;;;;;68.55;27.42;;;1.40;99.90;;;;;;5052539;28;20024;-46
2021/03/02 07:36:40;;;;;;;58.22;24.90;;;1.40;99.90;;;;;;5066502;28;20052;-49
2021/03/02 07:39:19;;;;;;;60.10;25.70;;;1.40;99.90;;;;;;5066361;28;20371;-47
2021/03/02 07:41:46;;;;;;;66.35;27.35;;;1.30;99.90;;;;;;5068051;28;20267;-45
2021/03/02 07:44:12;;;;;;;62.83;27.42;;;1.40;99.90;;;;;;5056698;28;20176;-46
2021/03/02 07:46:37;;;;;;;64.88;27.60;;;1.40;99.90;;;;;;5047435;28;20186;-47
2021/03/02 07:49:24;;;;;;;63.63;25.70;;;1.50;99.90;;;;;;5054673;28;20029;-46
2021/03/02 07:52:02;;;;;;;63.15;26.52;;;1.60;99.90;;;;;;5056233;28;20108;-48
2021/03/02 07:54:29;;;;;;;56.92;25.50;;;1.80;99.90;;;;;;5050615;28;20021;-48
2021/03/02 07:57:16;;;;;;;58.17;25.02;;;1.90;99.90;;;;;;5046278;28;20138;-50
2021/03/02 07:59:45;;;;;;;65.47;26.65;;;2.00;99.90;;;;;;5052462;28;20075;-48
2021/03/02 08:02:17;;;;;;;64.47;26.55;;;2.00;99.90;;;;;;5067939;28;20551;-50
2021/03/02 08:04:50;;;;;;;65.20;24.73;;;2.10;99.90;;;;;;5061653;28;20039;-48
2021/03/02 08:07:22;;;;;;;64.75;24.55;;;2.00;99.90;;;;;;5060699;28;20033;-48
2021/03/02 08:09:53;;;;;;;64.38;26.05;;;2.00;99.90;;;;;;5048351;28;20025;-47
2021/03/02 08:12:26;;;;;;;69.82;28.98;;;2.10;99.90;;;;;;5047689;28;20040;-47
2021/03/02 08:14:53;;;;;;;75.32;30.77;;;2.10;99.90;;;;;;5046551;28;20025;-48
2021/03/02 08:17:20;;;;;;;63.90;26.50;;;2.20;99.90;;;;;;5047521;28;20511;-49
2021/03/02 08:19:50;;;;;;;70.00;28.73;;;2.30;99.90;;;;;;5048375;28;20360;-51
2021/03/02 08:22:19;;;;;;;67.18;27.75;;;2.30;99.90;;;;;;5047560;28;20389;-47
2021/03/02 08:24:49;;;;;;;97.47;31.45;;;2.40;99.90;;;;;;5050583;28;20433;-48
2021/03/02 08:27:16;;;;;;;77.25;27.92;;;2.30;99.90;;;;;;5048055;28;20040;-48
2021/03/02 08:29:51;;;;;;;86.85;33.22;;;2.20;99.90;;;;;;5046477;28;20664;-47
2021/03/02 08:32:18;;;;;;;74.75;29.77;;;2.30;99.90;;;;;;5047021;28;20032;-46
2021/03/02 08:34:45;;;;;;;76.68;30.65;;;2.50;99.90;;;;;;5048323;28;20562;-46
2021/03/02 08:37:11;;;;;;;72.70;31.17;;;2.60;99.90;;;;;;5048433;28;20061;-48
2021/03/02 08:39:36;;;;;;;74.68;31.38;;;2.60;99.90;;;;;;5056552;28;20105;-47
2021/03/02 08:42:06;;;;;;;80.72;32.83;;;2.60;99.90;;;;;;5056469;28;20101;-49
2021/03/02 08:44:32;;;;;;;52.92;22.23;;;2.70;99.90;;;;;;5055322;28;20013;-47
2021/03/02 08:46:58;;;;;;;80.05;31.48;;;2.80;99.90;;;;;;5055306;28;20056;-46
2021/03/02 08:49:24;;;;;;;98.55;34.13;;;2.80;99.90;;;;;;5057575;28;20110;-46
2021/03/02 08:51:59;;;;;;;81.07;33.05;;;2.90;99.90;;;;;;5060323;28;20021;-47
2021/03/02 08:54:24;;;;;;;80.47;34.95;;;2.90;99.90;;;;;;5075323;28;20345;-47
2021/03/02 08:57:03;;;;;;;82.25;32.90;;;2.90;99.90;;;;;;5059502;28;20025;-47
2021/03/02 08:59:30;;;;;;;87.72;33.90;;;2.90;99.90;;;;;;5059245;28;20159;-46
2021/03/02 09:01:59;;;;;;;81.55;32.33;;;2.90;99.90;;;;;;5058848;28;20028;-48
2021/03/02 09:04:31;;;;;;;84.68;33.35;;;2.90;99.90;;;;;;5057938;28;20058;-48
2021/03/02 09:06:56;;;;;;;82.63;34.60;;;2.90;99.90;;;;;;5057633;28;20133;-49
2021/03/02 09:09:23;;;;;;;83.68;35.05;;;2.90;99.90;;;;;;5056629;28;20131;-47
2021/03/02 09:11:54;;;;;;;78.72;33.38;;;3.10;99.90;;;;;;5060401;28;20032;-48
2021/03/02 09:14:25;;;;;;;81.40;33.13;;;3.10;99.90;;;;;;5057115;28;20017;-50
2021/03/02 09:16:56;;;;;;;68.30;30.42;;;3.20;99.90;;;;;;5059273;28;20040;-48
2021/03/02 09:19:34;;;;;;;;;;;3.30;99.90;;;;;;5056770;28;20017;-48
2021/03/02 09:22:05;;;;;;;79.95;33.75;;;3.40;99.90;;;;;;5059582;28;19904;-50
2021/03/02 09:24:38;;;;;;;83.78;34.03;;;3.40;99.90;;;;;;5058471;28;20016;-50
2021/03/02 09:27:12;;;;;;;81.97;34.45;;;3.30;99.90;;;;;;5062107;28;20482;-50
2021/03/02 09:29:43;;;;;;;85.03;35.78;;;3.50;99.90;;;;;;5066756;28;20513;-48
2021/03/02 09:32:09;;;;;;;;;;;3.50;99.90;;;;;;5058184;28;20029;-47
2021/03/02 09:34:46;;;;;;;76.03;33.88;;;3.50;99.90;;;;;;5058757;28;19947;-49
2021/03/02 09:37:18;;;;;;;85.13;36.55;;;3.60;99.90;;;;;;5052456;28;20021;-47
2021/03/02 09:40:03;;;;;;;78.43;34.83;;;3.70;99.90;;;;;;5068896;28;20024;-47
2021/03/02 09:42:30;;;;;;;65.82;30.90;;;3.90;99.90;;;;;;5070358;28;20367;-50
2021/03/02 09:44:57;;;;;;;66.70;29.88;;;4.10;99.90;;;;;;5056782;28;20425;-48
2021/03/02 09:47:28;;;;;;;64.30;30.15;;;4.40;99.90;;;;;;5054195;28;20505;-48
2021/03/02 09:50:01;;;;;;;67.47;29.50;;;4.50;99.90;;;;;;5060227;28;20032;-45
2021/03/02 09:52:37;;;;;;;65.65;30.70;;;4.40;99.90;;;;;;5059098;28;20107;-47
2021/03/02 09:55:16;;;;;;;62.97;29.33;;;4.10;99.90;;;;;;5068500;28;20047;-47
2021/03/02 09:58:10;;;;;;;60.10;30.10;;;4.10;99.90;;;;;;5048297;28;20021;-47
2021/03/02 10:00:46;;;;;;;64.50;30.75;;;4.30;99.90;;;;;;5059428;28;20083;-47
2021/03/02 10:03:15;;;;;;;55.58;28.05;;;4.40;99.90;;;;;;5052331;28;20017;-46
2021/03/02 10:05:53;;;;;;;61.97;29.58;;;4.40;99.90;;;;;;5049276;28;20029;-46
2021/03/02 10:08:22;;;;;;;62.78;29.42;;;4.60;99.90;;;;;;5055780;28;20025;-48
2021/03/02 10:10:48;;;;;;;63.05;30.27;;;4.70;99.90;;;;;;5050074;28;20522;-49
2021/03/02 10:13:28;;;;;;;64.65;31.15;;;4.90;99.90;;;;;;5068477;28;20020;-49
2021/03/02 10:16:29;;;;;;;58.78;30.30;;;4.90;99.90;;;;;;5051644;28;20033;-47
2021/03/02 10:19:19;;;;;;;;;;;5.00;99.90;;;;;;5039117;28;21688;-47
2021/03/02 10:21:50;;;;;;;59.83;29.52;;;4.90;99.90;;;;;;5050918;28;19916;-47
2021/03/02 10:24:35;;;;;;;66.15;30.80;;;4.80;99.90;;;;;;5066891;28;20190;-46
2021/03/02 10:27:18;;;;;;;62.67;29.27;;;4.90;99.90;;;;;;5068915;28;20024;-47
2021/03/02 10:29:45;;;;;;;54.28;28.58;;;4.90;99.90;;;;;;5054354;28;20111;-49
2021/03/02 10:32:11;;;;;;;53.58;27.17;;;5.30;99.90;;;;;;5082825;28;20024;-46
2021/03/02 10:34:37;;;;;;;49.65;25.25;;;5.40;99.90;;;;;;5088628;28;20028;-50
2021/03/02 10:37:07;;;;;;;43.90;23.27;;;5.30;99.90;;;;;;5049488;28;20032;-47
2021/03/02 10:39:34;;;;;;;46.88;25.63;;;5.80;99.90;;;;;;5049762;28;20055;-47
2021/03/02 10:42:00;;;;;;;49.38;25.50;;;6.00;99.90;;;;;;5048271;28;20025;-46
2021/03/02 10:44:26;;;;;;;45.13;24.50;;;6.00;99.90;;;;;;5049111;28;20029;-46
2021/03/02 10:46:51;;;;;;;51.17;27.42;;;6.00;99.90;;;;;;5048842;28;20438;-47
2021/03/02 10:49:17;;;;;;;51.50;27.15;;;6.10;99.90;;;;;;5052989;28;20530;-47
2021/03/02 10:51:42;;;;;;;47.30;24.95;;;6.00;99.90;;;;;;5060222;28;20035;-46
2021/03/02 10:54:09;;;;;;;45.55;24.52;;;6.10;99.90;;;;;;5058283;28;20156;-47
2021/03/02 10:56:35;;;;;;;42.55;22.80;;;6.20;99.90;;;;;;5054706;28;20043;-50
2021/03/02 10:59:01;;;;;;;42.03;23.25;;;6.40;99.90;;;;;;5054275;28;20013;-49
2021/03/02 11:01:26;;;;;;;48.80;26.83;;;6.70;99.90;;;;;;5055335;28;20043;-49
2021/03/02 11:03:53;;;;;;;48.45;27.33;;;6.50;99.90;;;;;;5057231;28;20044;-47
2021/03/02 11:06:21;;;;;;;48.80;25.30;;;6.60;99.90;;;;;;5056867;28;20074;-48
2021/03/02 11:08:48;;;;;;;53.38;26.50;;;6.70;99.90;;;;;;5053392;28;20017;-47
2021/03/02 11:11:15;;;;;;;49.60;27.27;;;7.10;99.90;;;;;;5056719;28;20032;-49
2021/03/02 11:13:42;;;;;;;50.47;27.00;;;7.50;99.90;;;;;;5056843;28;20032;-46
2021/03/02 11:16:08;;;;;;;46.03;25.63;;;7.80;99.90;;;;;;5056379;28;20029;-48
2021/03/02 11:18:33;;;;;;;47.90;26.58;;;8.00;99.90;;;;;;5057328;28;20035;-48
2021/03/02 11:20:59;;;;;;;46.33;25.65;;;8.50;99.90;;;;;;5057785;28;20056;-49
2021/03/02 11:23:25;;;;;;;38.17;23.70;;;9.10;99.90;;;;;;5057256;28;20052;-50
2021/03/02 11:25:51;;;;;;;38.05;23.45;;;10.30;99.90;;;;;;5054214;28;20025;-48
2021/03/02 11:28:16;;;;;;;34.58;22.02;;;11.90;99.90;;;;;;5054569;28;20032;-50
2021/03/02 11:30:42;;;;;;;32.55;23.33;;;14.10;94.80;;;;;;5056521;28;20590;-48
2021/03/02 11:33:12;;;;;;;30.75;22.48;;;14.70;81.10;;;;;;5056841;28;20471;-50
2021/03/02 11:35:37;;;;;;;30.73;21.10;;;15.40;76.20;;;;;;5056709;28;20021;-50
2021/03/02 11:38:04;;;;;;;28.13;20.73;;;16.10;73.50;;;;;;5054981;28;20565;-50
2021/03/02 11:40:30;;;;;;;29.65;21.50;;;17.20;64.60;;;;;;5067123;28;20066;-50
2021/03/02 11:42:57;;;;;;;28.60;21.33;;;17.40;65.60;;;;;;5068715;28;20025;-49
2021/03/02 11:45:23;;;;;;;27.95;20.65;;;17.60;63.70;;;;;;5050634;28;20029;-51
2021/03/02 11:47:50;;;;;;;27.58;21.35;;;18.30;58.90;;;;;;5048561;28;20032;-51
2021/03/02 11:50:17;;;;;;;29.38;22.38;;;18.50;56.30;;;;;;5047834;28;20222;-50
2021/03/02 11:52:42;;;;;;;25.83;20.88;;;19.00;54.30;;;;;;5048946;28;20041;-49
2021/03/02 11:55:08;;;;;;;25.75;21.52;;;19.20;55.50;;;;;;5047574;28;20033;-51
2021/03/02 11:57:35;;;;;;;23.98;19.88;;;18.80;56.80;;;;;;5048680;28;20029;-50
2021/03/02 12:00:00;;;;;;;24.13;20.77;;;19.00;55.60;;;;;;5061016;28;20094;-51
2021/03/02 12:02:26;;;;;;;25.40;20.67;;;19.30;54.30;;;;;;5046566;28;20037;-51
2021/03/02 12:04:53;;;;;;;26.27;21.17;;;19.80;52.80;;;;;;5047129;28;20025;-51
2021/03/02 12:07:19;;;;;;;29.35;22.38;;;19.60;53.10;;;;;;5047415;28;20017;-51
2021/03/02 12:09:44;;;;;;;31.17;21.65;;;19.30;53.50;;;;;;5048372;28;20093;-49
2021/03/02 12:12:10;;;;;;;27.70;20.42;;;19.20;53.80;;;;;;5047342;28;20033;-48
2021/03/02 12:14:35;;;;;;;27.13;21.63;;;19.60;52.50;;;;;;5065644;28;20029;-47
2021/03/02 12:17:01;;;;;;;24.23;19.60;;;19.70;51.90;;;;;;5067948;28;20119;-46
2021/03/02 12:19:28;;;;;;;24.83;20.80;;;19.50;52.30;;;;;;5049144;28;20529;-46
2021/03/02 12:21:54;;;;;;;23.52;18.92;;;19.70;53.40;;;;;;5048215;28;20029;-46
2021/03/02 12:24:20;;;;;;;27.08;22.00;;;19.90;53.60;;;;;;5059540;28;20024;-47
2021/03/02 12:26:46;;;;;;;27.13;21.38;;;20.00;51.50;;;;;;5068286;28;20067;-46
2021/03/02 12:29:13;;;;;;;27.33;22.75;;;20.10;51.30;;;;;;5058429;28;20113;-48
2021/03/02 12:31:39;;;;;;;30.48;23.02;;;20.20;51.40;;;;;;5058906;28;20032;-48
2021/03/02 12:34:04;;;;;;;28.50;22.25;;;20.10;52.00;;;;;;5060148;28;20029;-46
2021/03/02 12:36:30;;;;;;;32.78;23.45;;;20.00;51.70;;;;;;5059858;28;20398;-46
2021/03/02 12:38:57;;;;;;;31.08;24.35;;;19.60;53.30;;;;;;5058278;28;20180;-47
2021/03/02 12:41:22;;;;;;;32.70;23.95;;;19.00;54.30;;;;;;5060039;28;20028;-46
2021/03/02 12:43:48;;;;;;;32.72;25.42;;;18.50;55.00;;;;;;5059350;28;20021;-49